Latest Weather Observations for Adelaide

IDS60801

Issued at 5:01 pm CST Tuesday 28 June 2016 (issued every 30 minutes, with the page automatically refreshed every 10 minutes)

About weather observations | Map of weather stations | Latest weather observations for SA | Other Formats
Station Details ID: 023090 Name: KENT TOWN Lat: -34.92 Lon: 138.62 Height: 48.0 m
Data from the previous 72 hours. | See also: Recent months at Adelaide
Date/Time
CST
Temp
°C
App
Temp
°C
Dew
Point
°C
Rel
Hum
%
Delta-T
°C
Wind Press
QNH
hPa
Press
MSL
hPa
Rain since
9am
mm
Dir  Spd
km/h
Gust
km/h
Spd
kts
Gust
kts
28/05:00pm 13.7 11.7 7.1 64 3.2 N 7 15 4 8 1026.1 - 0.0
28/04:30pm 14.6 11.7 6.5 58 3.9 N 11 19 6 10 1026.2 - 0.0
28/04:00pm 15.4 12.7 7.3 58 4.0 NW 11 19 6 10 1026.1 - 0.0
28/03:30pm 15.6 12.6 7.8 59 3.9 NNW 13 20 7 11 1026.1 - 0.0
28/03:00pm 15.6 12.8 6.8 56 4.3 NNW 11 20 6 11 1026.1 1026.2 0.0
28/02:30pm 15.9 12.7 6.9 55 4.4 NW 13 24 7 13 1026.2 - 0.0
28/02:00pm 16.0 13.0 7.6 57 4.2 NW 13 20 7 11 1026.4 - 0.0
28/01:30pm 15.7 12.0 6.2 53 4.6 NW 15 24 8 13 1026.6 - 0.0
28/01:00pm 15.7 11.7 6.7 55 4.4 NNW 17 24 9 13 1026.7 - 0.0
28/12:30pm 15.3 12.3 7.6 60 3.8 NNW 13 20 7 11 1027.0 - 0.0
28/12:00pm 14.7 11.8 8.1 64 3.3 NNW 13 20 7 11 1027.5 1027.6 0.0
28/11:30am 14.3 11.4 8.1 66 3.1 N 13 19 7 10 1027.7 - 0.0
28/11:00am 13.5 11.1 7.1 65 3.1 N 9 13 5 7 1027.9 - 0.0
28/10:30am 13.0 10.6 7.0 67 2.9 N 9 17 5 9 1028.0 - 0.0
28/10:00am 12.1 9.2 6.4 68 2.7 N 11 17 6 9 1027.9 - 0.0
28/09:30am 11.0 8.4 6.3 73 2.2 NNE 9 11 5 6 1027.7 - 0.0
28/09:00am 10.5 8.0 6.4 76 1.9 N 9 13 5 7 1027.4 1027.5 0.0
28/08:30am 10.4 8.2 6.3 76 1.9 NNE 7 13 4 7 1027.1 - 0.0
28/08:00am 10.1 7.5 6.2 77 1.8 NNE 9 13 5 7 1026.9 - 0.0
28/07:30am 10.3 8.3 6.9 79 1.6 NNE 7 13 4 7 1026.6 - 0.0
28/07:00am 10.3 8.6 7.4 82 1.4 NE 6 13 3 7 1026.2 - 0.0
28/06:30am 10.3 8.4 7.6 83 1.3 NNE 7 11 4 6 1025.7 - 0.0
28/06:00am 10.3 8.4 7.6 83 1.3 NNE 7 13 4 7 1025.3 1025.4 0.0
28/05:30am 10.3 8.7 8.0 86 1.1 NNE 6 11 3 6 1025.2 - 0.0
28/05:00am 10.2 8.4 7.9 86 1.1 NNE 7 15 4 8 1025.1 - 0.0
28/04:30am 10.3 8.4 7.6 83 1.3 NNE 7 11 4 6 1024.9 - 0.0
28/04:00am 10.1 8.4 7.6 84 1.2 NNE 6 11 3 6 1024.8 - 0.0
28/03:30am 10.0 8.0 7.3 83 1.3 NNE 7 11 4 6 1024.9 - 0.0
28/03:00am 9.9 7.9 7.1 83 1.3 NE 7 13 4 7 1024.9 1025.0 0.0
28/02:30am 10.2 8.8 7.2 82 1.4 NE 4 13 2 7 1025.1 - 0.0
28/02:00am 10.1 8.4 7.4 83 1.3 NNE 6 9 3 5 1025.1 - 0.0
28/01:30am 10.1 8.8 7.6 84 1.2 NE 4 7 2 4 1024.9 - 0.0
28/01:00am 9.9 9.0 7.6 85 1.1 NNE 2 7 1 4 1024.8 - 0.0
28/12:30am 9.9 8.3 7.8 87 1.0 NNE 6 11 3 6 1024.8 - 0.0
28/12:00am 9.7 8.4 7.8 88 0.9 NNE 4 7 2 4 1024.8 1024.9 0.0
 
Date/Time
CST
Temp
°C
App
Temp
°C
Dew
Point
°C
Rel
Hum
%
Delta-T
°C
Wind Press
QNH
hPa
Press
MSL
hPa
Rain since
9am
mm
Dir  Spd
km/h
Gust
km/h
Spd
kts
Gust
kts
27/11:30pm 9.5 8.7 8.0 90 0.7 ENE 2 9 1 5 1024.7 - 0.0
27/11:00pm 9.2 8.7 7.9 92 0.6 CALM 0 0 0 0 1024.7 - 0.0
27/10:30pm 9.0 8.4 7.5 90 0.7 CALM 0 0 0 0 1024.6 - 0.0
27/10:00pm 9.3 8.7 7.4 88 0.9 CALM 0 0 0 0 1024.5 - 0.0
27/09:30pm 9.0 8.4 7.3 89 0.8 CALM 0 0 0 0 1024.3 - 0.0
27/09:00pm 9.5 8.9 7.4 87 1.0 CALM 0 0 0 0 1024.1 1024.2 0.0
27/08:30pm 9.3 8.6 6.9 85 1.1 CALM 0 0 0 0 1024.1 - 0.0
27/08:00pm 9.7 9.0 6.9 83 1.3 CALM 0 0 0 0 1023.8 - 0.0
27/07:30pm 10.1 9.5 7.4 83 1.3 CALM 0 0 0 0 1023.5 - 0.0
27/07:00pm 10.8 10.2 7.2 78 1.7 CALM 0 0 0 0 1023.2 - 0.0
27/06:30pm 10.6 10.0 7.2 79 1.6 CALM 0 0 0 0 1023.0 - 0.0
27/06:00pm 10.7 10.0 7.1 78 1.7 CALM 0 0 0 0 1022.6 1022.7 0.0
27/05:30pm 11.6 10.9 6.8 72 2.3 CALM 0 0 0 0 1022.3 - 0.0
27/05:00pm 12.8 10.6 6.3 64 3.1 WNW 7 11 4 6 1022.2 - 0.0
27/04:30pm 13.5 11.3 6.4 62 3.4 WNW 7 9 4 5 1021.9 - 0.0
27/04:00pm 14.0 11.7 5.5 56 4.0 W 7 11 4 6 1021.7 - 0.0
27/03:30pm 14.6 10.9 4.7 51 4.6 WSW 13 20 7 11 1021.5 - 0.0
27/03:00pm 14.9 12.2 5.6 53 4.4 SW 9 15 5 8 1021.3 1021.4 0.0
27/02:30pm 15.1 12.0 5.4 52 4.6 WSW 11 17 6 9 1021.2 - 0.0
27/02:00pm 14.9 11.0 5.4 53 4.5 WSW 15 20 8 11 1021.2 - 0.0
27/01:30pm 15.2 12.4 5.0 50 4.8 SW 9 17 5 9 1021.2 - 0.0
27/01:00pm 14.9 12.3 6.2 56 4.2 WSW 9 15 5 8 1021.4 - 0.0
27/12:30pm 14.4 11.0 5.8 56 4.1 SW 13 24 7 13 1021.5 - 0.0
27/12:00pm 14.3 11.5 6.9 61 3.6 SW 11 17 6 9 1021.7 1021.8 0.0
27/11:30am 12.9 9.8 7.3 69 2.7 SW 13 22 7 12 1022.0 - 0.0
27/11:00am 13.7 12.2 9.2 74 2.3 SW 7 13 4 7 1021.9 - 0.0
27/10:30am 13.0 12.6 9.9 81 1.6 SW 2 7 1 4 1021.8 - 0.0
27/10:00am 12.4 12.4 9.9 85 1.3 CALM 0 6 0 3 1021.6 - 0.0
27/09:30am 11.4 11.3 9.6 89 0.9 CALM 0 0 0 0 1021.3 - 0.0
27/09:00am 10.4 9.9 9.4 93 0.5 NE 2 6 1 3 1021.1 1021.2 2.6
27/08:30am 9.6 9.4 9.0 96 0.3 CALM 0 6 0 3 1020.8 - 2.6
27/08:00am 9.4 9.1 8.8 96 0.3 CALM 0 0 0 0 1020.3 - 2.6
27/07:30am 9.4 8.8 8.8 96 0.3 N 2 7 1 4 1020.0 - 2.6
27/07:00am 9.5 8.5 8.9 96 0.3 ENE 4 7 2 4 1019.6 - 2.6
27/06:30am 9.4 9.1 8.8 96 0.3 CALM 0 0 0 0 1019.1 - 2.6
27/06:00am 9.4 8.8 9.0 97 0.2 ENE 2 6 1 3 1018.6 1018.7 2.6
27/05:30am 9.3 8.3 8.7 96 0.3 NE 4 9 2 5 1018.3 - 2.0
27/05:00am 9.4 9.1 8.8 96 0.3 CALM 0 6 0 3 1018.1 - 1.6
27/04:30am 9.4 8.3 8.6 95 0.4 NE 4 11 2 6 1017.9 - 1.2
27/04:00am 9.3 8.6 8.7 96 0.3 NNE 2 9 1 5 1017.6 - 1.0
27/03:30am 9.3 9.0 8.5 95 0.4 CALM 0 0 0 0 1017.6 - 0.8
27/03:00am 9.2 8.1 8.4 95 0.4 NNE 4 13 2 7 1017.5 1017.6 0.8
27/02:30am 9.2 7.6 8.2 93 0.5 NNE 6 11 3 6 1017.5 - 0.6
27/02:00am 9.4 7.6 7.9 90 0.7 NE 7 13 4 7 1017.4 - 0.2
27/01:30am 9.4 7.5 7.7 89 0.8 NNE 7 11 4 6 1017.4 - 0.2
27/01:00am 9.5 7.6 7.6 88 0.9 NNE 7 15 4 8 1017.5 - 0.0
27/12:30am 9.5 7.8 7.6 88 0.9 ENE 6 9 3 5 1017.5 - 0.0
27/12:00am 9.4 7.5 7.5 88 0.9 NE 7 13 4 7 1017.5 1017.6 0.0
 
Date/Time
CST
Temp
°C
App
Temp
°C
Dew
Point
°C
Rel
Hum
%
Delta-T
°C
Wind Press
QNH
hPa
Press
MSL
hPa
Rain since
9am
mm
Dir  Spd
km/h
Gust
km/h
Spd
kts
Gust
kts
26/11:30pm 9.4 8.1 7.5 88 0.9 NE 4 9 2 5 1017.6 - 0.0
26/11:00pm 9.7 9.0 6.9 83 1.3 CALM 0 0 0 0 1017.4 - 0.0
26/10:30pm 9.6 8.5 6.8 83 1.3 NNE 2 7 1 4 1017.4 - 0.0
26/10:00pm 9.1 7.6 6.7 85 1.1 ENE 4 7 2 4 1017.2 - 0.0
26/09:30pm 9.1 7.9 6.5 84 1.2 NNE 2 9 1 5 1017.3 - 0.0
26/09:00pm 9.0 7.8 6.6 85 1.1 NE 2 7 1 4 1017.1 1017.2 0.0
26/08:30pm 8.5 7.7 6.6 88 0.9 CALM 0 6 0 3 1017.1 - 0.0
26/08:00pm 8.9 8.1 6.5 85 1.1 CALM 0 0 0 0 1017.0 - 0.0
26/07:30pm 9.5 8.7 6.5 81 1.4 CALM 0 0 0 0 1017.0 - 0.0
26/07:00pm 10.1 9.3 6.7 79 1.6 CALM 0 6 0 3 1017.0 - 0.0
26/06:30pm 10.8 9.6 6.3 74 2.1 ENE 2 7 1 4 1016.7 - 0.0
26/06:00pm 10.7 9.5 6.4 75 2.0 E 2 7 1 4 1016.5 1016.6 0.0
26/05:30pm 10.7 9.5 6.4 75 2.0 NE 2 7 1 4 1016.2 - 0.0
26/05:00pm 11.7 8.6 5.7 66 2.8 N 11 17 6 9 1016.0 - 0.0
26/04:30pm 12.0 8.7 4.8 61 3.3 N 11 17 6 9 1016.0 - 0.0
26/04:00pm 12.1 8.9 3.3 55 3.9 NW 9 17 5 9 1015.8 - 0.0
26/03:30pm 11.9 9.0 4.7 61 3.3 W 9 17 5 9 1015.9 - 0.0
26/03:00pm 12.6 8.4 5.8 63 3.2 NW 17 30 9 16 1015.9 1016.0 0.0
26/02:30pm 13.0 9.5 5.5 60 3.5 WNW 13 20 7 11 1016.0 - 0.0
26/02:00pm 13.3 9.7 4.9 57 3.9 NNW 13 24 7 13 1016.1 - 0.0
26/01:30pm 13.5 9.9 3.2 49 4.6 NW 11 22 6 12 1016.2 - 0.0
26/01:00pm 13.4 9.7 4.5 55 4.1 NNW 13 24 7 13 1016.5 - 0.0
26/12:30pm 13.8 9.9 3.6 50 4.6 N 13 20 7 11 1016.8 - 0.0
26/12:00pm 13.5 9.4 4.1 53 4.3 N 15 24 8 13 1017.3 1017.4 0.0
26/11:30am 13.5 9.7 3.8 52 4.4 NNW 13 20 7 11 1017.9 - 0.0
26/11:00am 12.6 8.0 3.9 55 3.9 N 17 26 9 14 1018.3 - 0.0
26/10:30am 11.6 9.3 4.8 63 3.1 ENE 6 11 3 6 1018.3 - 0.0
26/10:00am 10.9 8.6 5.5 69 2.5 NNE 7 13 4 7 1018.7 - 0.0
26/09:30am 10.5 6.8 4.7 67 2.6 N 13 22 7 12 1019.0 - 0.0
26/09:00am 10.5 7.5 3.9 63 2.9 N 9 19 5 10 1019.0 1019.1 0.0
26/08:30am 9.8 7.5 4.9 71 2.2 NE 6 11 3 6 1018.7 - 0.0
26/08:00am 9.7 8.2 4.8 71 2.2 NE 2 7 1 4 1018.8 - 0.0
26/07:30am 9.7 7.4 5.0 72 2.1 NNE 6 9 3 5 1018.7 - 0.0
26/07:00am 9.7 8.6 5.3 74 2.0 CALM 0 7 0 4 1018.3 - 0.0
26/06:30am 9.6 8.5 5.2 74 2.0 CALM 0 6 0 3 1018.0 - 0.0
26/06:00am 9.7 8.6 5.0 72 2.1 CALM 0 0 0 0 1018.3 1018.4 0.0
26/05:30am 9.8 7.9 4.9 71 2.2 NE 4 7 2 4 1018.3 - 0.0
26/05:00am 10.0 7.7 4.6 69 2.4 NNE 6 11 3 6 1018.5 - 0.0
26/04:30am 9.9 7.5 4.5 69 2.4 N 6 7 3 4 1018.9 - 0.0
26/04:00am 9.8 8.7 4.9 71 2.2 CALM 0 0 0 0 1019.2 - 0.0
26/03:30am 10.1 7.7 4.5 68 2.5 NNE 6 9 3 5 1019.1 - 0.0
26/03:00am 10.3 8.3 4.2 66 2.7 NNE 4 7 2 4 1019.3 1019.4 0.0
26/02:30am 10.4 8.0 4.3 66 2.7 N 6 7 3 4 1019.6 - 0.0
26/02:00am 10.5 7.8 3.9 63 2.9 NNE 7 11 4 6 1019.6 - 0.0
26/01:30am 10.6 8.0 4.1 64 2.9 NNE 7 11 4 6 1020.0 - 0.0
26/01:00am 10.7 8.1 4.2 64 2.9 NNE 7 13 4 7 1020.1 - 0.0
26/12:30am 10.6 8.1 4.6 66 2.7 NE 7 13 4 7 1019.5 - 0.0
26/12:00am 10.5 8.8 6.0 74 2.1 NE 4 7 2 4 1020.0 1020.1 0.0
 
Date/Time
CST
Temp
°C
App
Temp
°C
Dew
Point
°C
Rel
Hum
%
Delta-T
°C
Wind Press
QNH
hPa
Press
MSL
hPa
Rain since
9am
mm
Dir  Spd
km/h
Gust
km/h
Spd
kts
Gust
kts
25/11:30pm 10.5 9.2 6.0 74 2.1 NE 2 7 1 4 1020.3 - 0.0
25/11:00pm 10.6 8.8 5.6 71 2.3 NNE 4 7 2 4 1020.6 - 0.0
25/10:30pm 10.7 8.5 5.2 69 2.5 NNE 6 11 3 6 1021.0 - 0.0
25/10:00pm 10.8 9.0 5.6 70 2.4 NNE 4 9 2 5 1021.1 - 0.0
25/09:30pm 10.7 9.1 6.2 74 2.1 E 4 9 2 5 1021.1 - 0.0
25/09:00pm 10.7 9.1 6.4 75 2.0 ENE 4 7 2 4 1020.9 1021.0 0.0
25/08:30pm 10.8 10.0 6.3 74 2.1 CALM 0 0 0 0 1021.4 - 0.0
25/08:00pm 10.9 10.0 6.2 73 2.2 CALM 0 0 0 0 1021.6 - 0.0
25/07:30pm 11.0 10.2 6.3 73 2.2 CALM 0 0 0 0 1022.1 - 0.0
25/07:00pm 11.0 10.2 6.3 73 2.2 CALM 0 6 0 3 1022.4 - 0.0
25/06:30pm 11.2 10.2 5.8 69 2.5 CALM 0 0 0 0 1021.9 - 0.0
25/06:00pm 11.5 9.7 5.2 65 2.9 NE 4 9 2 5 1021.6 1021.7 0.0
25/05:30pm 11.8 9.9 5.0 63 3.1 NE 4 9 2 5 1021.7 - 0.0

Other Formats:

Comma delimited format used in spreadsheet applications
http://www.bom.gov.au/fwo/IDS60801/IDS60801.94675.axf

JavaScript Object Notation format (JSON) in row-major order
http://www.bom.gov.au/fwo/IDS60801/IDS60801.94675.json